Time;durP1;ratioP1;P1;durP2;ratioP2;P2;SDS_P1;SDS_P2;PMS_P1;PMS_P2;Temp;Humidity;BMP_temperature;BMP_pressure;BME280_temperature;BME280_humidity;BME280_pressure;Samples;Min_cycle;Max_cycle;Signal;HPM_P1;HPM_P2
2022/08/04 00:00:38;;;;;;;3.58;3.28;;;;;;;23.03;55.90;98690.97;5072476;28;20100;-77
2022/08/04 00:03:18;;;;;;;4.10;3.03;;;;;;;23.13;55.72;98699.84;5055009;28;20024;-77
2022/08/04 00:05:59;;;;;;;4.20;3.80;;;;;;;22.66;57.31;98700.06;5072279;28;20055;-77
2022/08/04 00:08:43;;;;;;;3.33;2.95;;;;;;;23.03;56.08;98706.50;5070791;28;20028;-77
2022/08/04 00:11:10;;;;;;;4.13;3.83;;;;;;;22.99;56.02;98692.75;5072266;28;20665;-76
2022/08/04 00:13:38;;;;;;;4.65;3.40;;;;;;;23.00;56.14;98712.59;5072242;28;20020;-77
2022/08/04 00:16:09;;;;;;;5.32;3.30;;;;;;;22.93;56.05;98688.63;5054326;28;20400;-77
2022/08/04 00:18:37;;;;;;;4.38;3.13;;;;;;;22.72;56.40;98706.88;5054022;28;20021;-77
2022/08/04 00:21:05;;;;;;;3.70;3.40;;;;;;;22.74;56.60;98699.19;5070574;28;20035;-77
2022/08/04 00:23:35;;;;;;;3.65;3.28;;;;;;;22.77;56.26;98690.38;5072105;28;20056;-77
2022/08/04 00:26:01;;;;;;;5.75;3.95;;;;;;;22.76;56.29;98696.16;5072126;28;20109;-77
2022/08/04 00:28:27;;;;;;;3.28;3.08;;;;;;;22.33;58.28;98701.84;5070520;28;20043;-77
2022/08/04 00:30:53;;;;;;;4.93;3.25;;;;;;;22.56;56.83;98702.34;5071893;28;20044;-77
2022/08/04 00:33:20;;;;;;;4.20;3.80;;;;;;;22.60;56.65;98676.91;5071977;28;20121;-77
2022/08/04 00:35:48;;;;;;;4.13;3.70;;;;;;;22.72;56.67;98716.97;5071825;28;20016;-77
2022/08/04 00:38:16;;;;;;;4.20;3.83;;;;;;;22.67;56.73;98704.34;5071642;28;20436;-77
2022/08/04 00:40:44;;;;;;;4.30;3.90;;;;;;;22.70;56.60;98711.88;5070041;28;20021;-77
2022/08/04 00:43:35;;;;;;;4.03;3.40;;;;;;;22.61;56.82;98713.03;5069960;28;20059;-77
2022/08/04 00:46:22;;;;;;;3.35;3.15;;;;;;;22.49;56.80;98708.31;5071311;28;20380;-77
2022/08/04 00:48:53;;;;;;;3.63;3.25;;;;;;;22.32;57.61;98714.63;5069752;28;20484;-77
2022/08/04 00:51:24;;;;;;;5.10;3.88;;;;;;;22.50;56.99;98707.16;5071166;28;20103;-77
2022/08/04 00:53:53;;;;;;;5.47;3.75;;;;;;;22.41;57.42;98706.41;5071637;28;20050;-77
2022/08/04 00:57:09;;;;;;;5.15;3.88;;;;;;;22.53;57.12;98708.44;5070058;28;20170;-77
2022/08/04 00:59:40;;;;;;;4.45;3.95;;;;;;;22.44;57.22;98702.25;5084114;28;20049;-77
2022/08/04 01:02:20;;;;;;;7.82;4.57;;;;;;;22.17;57.68;98690.72;5071382;28;20051;-77
2022/08/04 01:05:02;;;;;;;4.45;4.05;;;;;;;22.34;57.64;98715.09;5071313;28;20028;-77
2022/08/04 01:07:40;;;;;;;5.07;3.67;;;;;;;22.25;57.63;98689.88;5078375;28;20373;-77
2022/08/04 01:10:37;;;;;;;4.13;3.72;;;;;;;22.32;57.41;98705.69;5078418;28;20039;-77
2022/08/04 01:13:25;;;;;;;7.53;4.32;;;;;;;22.29;57.62;98696.25;5076823;28;20586;-77
2022/08/04 01:15:51;;;;;;;4.07;3.78;;;;;;;22.14;57.79;98702.25;5076889;28;20033;-77
2022/08/04 01:18:42;;;;;;;5.20;4.55;;;;;;;21.50;62.88;98703.41;5077964;28;20502;-77
2022/08/04 01:21:28;;;;;;;4.47;4.07;;;;;;;21.26;62.00;98697.69;5079637;28;20125;-77
2022/08/04 01:24:25;;;;;;;4.13;3.73;;;;;;;21.63;59.23;98697.78;5076978;28;20081;-77
2022/08/04 01:27:17;;;;;;;4.35;3.97;;;;;;;21.22;61.92;98697.53;5077924;28;20027;-77
2022/08/04 01:29:52;;;;;;;4.40;4.00;;;;;;;20.96;61.70;98696.75;5076807;28;20029;-77
2022/08/04 01:32:26;;;;;;;4.18;3.78;;;;;;;20.90;63.18;98693.38;5060028;28;20487;-77
2022/08/04 01:35:00;;;;;;;4.65;4.25;;;;;;;20.44;65.88;98674.22;5076681;28;20028;-77
2022/08/04 01:37:54;;;;;;;4.70;4.30;;;;;;;20.46;65.03;98699.09;5076450;28;20066;-77
2022/08/04 01:40:21;;;;;;;6.00;3.83;;;;;;;21.15;60.72;98704.56;5075937;28;20794;-77
2022/08/04 01:42:51;;;;;;;5.22;4.22;;;;;;;21.49;59.64;98699.09;5076678;28;20085;-77
2022/08/04 01:45:16;;;;;;;4.80;4.30;;;;;;;21.77;59.20;98703.03;5060289;28;20702;-77
2022/08/04 01:47:53;;;;;;;4.90;4.03;;;;;;;21.75;58.95;98688.97;5059706;28;20029;-77
2022/08/04 01:50:19;;;;;;;5.47;4.30;;;;;;;21.73;58.99;98707.50;5059883;28;20029;-77
2022/08/04 01:52:47;;;;;;;4.28;3.65;;;;;;;21.64;59.13;98693.16;5077942;28;20439;-77
2022/08/04 01:55:14;;;;;;;4.90;4.10;;;;;;;21.75;59.18;98705.28;5077944;28;20384;-77
2022/08/04 01:57:48;;;;;;;5.32;3.80;;;;;;;21.59;59.15;98694.13;5076179;28;20032;-77
2022/08/04 02:00:17;;;;;;;8.35;4.63;;;;;;;21.73;59.07;98704.00;5060446;28;20111;-77
2022/08/04 02:02:44;;;;;;;4.32;3.80;;;;;;;21.42;59.26;98685.22;5077831;28;20480;-77
2022/08/04 02:05:13;;;;;;;5.75;4.03;;;;;;;21.55;59.63;98695.91;5076446;28;20016;-77
2022/08/04 02:07:54;;;;;;;5.13;4.72;;;;;;;21.55;59.36;98697.81;5076246;28;20466;-77
2022/08/04 02:10:28;;;;;;;4.57;3.97;;;;;;;21.46;59.69;98697.81;5076391;28;20112;-77
2022/08/04 02:13:02;;;;;;;5.18;4.68;;;;;;;21.48;59.83;98692.06;5093486;28;20047;-77
2022/08/04 02:15:49;;;;;;;4.60;4.20;;;;;;;21.51;59.55;98688.72;5076356;28;20364;-77
2022/08/04 02:18:29;;;;;;;4.60;4.20;;;;;;;21.47;59.68;98668.75;5073047;28;20020;-77
2022/08/04 02:20:58;;;;;;;4.75;4.32;;;;;;;21.60;59.52;98681.34;5072939;28;20025;-77
2022/08/04 02:23:37;;;;;;;6.40;4.95;;;;;;;21.57;59.42;98688.22;5073206;28;20686;-77
2022/08/04 02:26:12;;;;;;;4.97;4.47;;;;;;;21.52;59.65;98691.09;5074246;28;20032;-77
2022/08/04 02:28:47;;;;;;;9.43;4.78;;;;;;;21.44;59.81;98678.34;5074322;28;20024;-77
2022/08/04 02:31:16;;;;;;;5.57;4.70;;;;;;;21.48;59.82;98675.78;5074222;28;20435;-77
2022/08/04 02:33:50;;;;;;;5.32;4.93;;;;;;;21.52;59.70;98685.66;5072992;28;20027;-77
2022/08/04 02:36:26;;;;;;;5.28;4.60;;;;;;;21.30;59.99;98666.88;5073109;28;20024;-77
2022/08/04 02:38:57;;;;;;;5.10;4.70;;;;;;;21.34;60.07;98675.19;5073571;28;20800;-77
2022/08/04 02:41:25;;;;;;;4.70;4.22;;;;;;;21.31;59.96;98676.63;5072952;28;20025;-77
2022/08/04 02:43:53;;;;;;;7.38;4.50;;;;;;;21.34;59.98;98656.16;5073935;28;20028;-77
2022/08/04 02:46:20;;;;;;;5.55;4.30;;;;;;;21.34;59.90;98672.47;5072937;28;20047;-77
2022/08/04 02:48:48;;;;;;;5.47;4.80;;;;;;;21.08;59.92;98661.63;5072477;28;20042;-77
2022/08/04 02:51:15;;;;;;;6.22;4.93;;;;;;;21.09;60.59;98665.94;5072644;28;20028;-77
2022/08/04 02:53:42;;;;;;;6.47;5.22;;;;;;;21.07;60.40;98668.19;5056236;28;20025;-77
2022/08/04 02:56:08;;;;;;;5.03;4.60;;;;;;;21.00;60.75;98650.75;5074076;28;20074;-77
2022/08/04 02:58:35;;;;;;;9.48;4.72;;;;;;;20.93;60.74;98649.31;5072513;28;20419;-77
2022/08/04 03:01:02;;;;;;;5.05;4.53;;;;;;;21.05;60.74;98664.19;5073778;28;20093;-77
2022/08/04 03:03:28;;;;;;;5.88;5.15;;;;;;;21.06;60.91;98661.16;5073874;28;20480;-77
2022/08/04 03:06:18;;;;;;;5.13;4.50;;;;;;;21.00;60.89;98656.19;5072403;28;20029;-77
2022/08/04 03:09:40;;;;;;;5.15;4.22;;;;;;;21.00;60.94;98661.59;5073362;28;20056;-77
2022/08/04 03:12:17;;;;;;;5.95;4.38;;;;;;;20.84;61.33;98658.56;5074483;28;20024;-77
2022/08/04 03:14:58;;;;;;;6.18;4.70;;;;;;;20.78;61.66;98654.44;5074169;28;20436;-77
2022/08/04 03:17:39;;;;;;;5.47;4.45;;;;;;;20.72;61.08;98634.81;5088511;28;20123;-77
2022/08/04 03:20:36;;;;;;;5.68;5.18;;;;;;;20.89;60.79;98661.94;5073558;28;20029;-77
2022/08/04 03:23:40;;;;;;;5.60;4.57;;;;;;;20.83;61.50;98657.81;5071940;28;20384;-77
2022/08/04 03:26:12;;;;;;;5.45;4.93;;;;;;;20.92;61.17;98658.56;5079191;28;20055;-77
2022/08/04 03:28:49;;;;;;;6.13;4.78;;;;;;;20.63;63.69;98663.84;5071397;28;20484;-77
2022/08/04 03:31:46;;;;;;;6.95;5.28;;;;;;;20.17;64.25;98664.38;5071972;28;20530;-76
2022/08/04 03:34:29;;;;;;;;;;;;;;;20.00;65.85;98660.81;5073612;28;20063;-77
2022/08/04 03:37:32;;;;;;;7.78;4.57;;;;;;;19.69;66.92;98662.78;5088696;28;19908;-77
2022/08/04 03:40:34;;;;;;;5.18;4.68;;;;;;;20.19;63.40;98659.44;5072798;28;20565;-77
2022/08/04 03:43:32;;;;;;;5.57;5.07;;;;;;;20.47;62.10;98648.34;5071561;28;20119;-77
2022/08/04 03:46:28;;;;;;;5.70;5.10;;;;;;;20.56;61.83;98657.28;5072825;28;20024;-77
2022/08/04 03:49:18;;;;;;;4.50;4.20;;;;;;;20.47;62.03;98665.41;5071490;28;20510;-77
2022/08/04 03:55:37;;;;;;;6.95;4.63;;;;;;;20.48;61.96;98667.03;5072910;28;20050;-77
2022/08/04 03:58:21;;;;;;;4.28;3.97;;;;;;;20.29;63.10;98665.72;5071048;28;20459;-77
2022/08/04 04:01:08;;;;;;;6.53;4.65;;;;;;;20.54;62.30;98660.34;5072315;28;20027;-77
2022/08/04 04:04:17;;;;;;;4.50;3.97;;;;;;;20.66;62.01;98667.84;5072581;28;20024;-77
2022/08/04 04:07:05;;;;;;;4.93;4.53;;;;;;;20.71;61.87;98663.06;5072393;28;20031;-77
2022/08/04 04:09:42;;;;;;;4.32;3.88;;;;;;;20.55;62.01;98661.13;5072538;28;20016;-77
2022/08/04 04:12:35;;;;;;;5.55;4.47;;;;;;;20.54;62.37;98660.34;5072782;28;20401;-77
2022/08/04 04:15:29;;;;;;;4.97;4.47;;;;;;;20.29;62.37;98650.22;5072230;28;20021;-79
2022/08/04 04:18:26;;;;;;;5.50;4.20;;;;;;;20.40;62.51;98659.66;5070730;28;20831;-77
2022/08/04 04:21:00;;;;;;;5.07;4.68;;;;;;;20.27;62.92;98660.59;5072372;28;20410;-77
2022/08/04 04:24:05;;;;;;;5.78;4.45;;;;;;;20.39;62.73;98666.22;5072377;28;20020;-77
2022/08/04 04:26:54;;;;;;;4.80;4.40;;;;;;;20.65;62.12;98664.34;5070678;28;20121;-77
2022/08/04 04:30:03;;;;;;;4.50;4.05;;;;;;;20.71;62.03;98675.81;5072094;28;20031;-77
2022/08/04 04:32:35;;;;;;;5.70;5.22;;;;;;;20.73;61.95;98665.44;5089817;28;20058;-77
2022/08/04 04:35:17;;;;;;;6.55;4.57;;;;;;;20.28;66.82;98662.22;5070670;28;20028;-77
2022/08/04 04:37:43;;;;;;;4.53;4.18;;;;;;;20.16;66.55;98653.84;5071710;28;20081;-77
2022/08/04 04:40:41;;;;;;;10.68;5.22;;;;;;;20.13;67.78;98647.16;5071374;28;20030;-77
2022/08/04 04:43:26;;;;;;;4.68;4.28;;;;;;;19.96;68.08;98640.91;5070413;28;20111;-77
2022/08/04 04:46:06;;;;;;;7.18;5.03;;;;;;;20.42;65.35;98652.00;5071906;28;20024;-77
2022/08/04 04:49:04;;;;;;;4.70;4.28;;;;;;;20.58;65.45;98660.47;5070175;28;20032;-77
2022/08/04 04:51:42;;;;;;;7.13;4.82;;;;;;;20.47;65.84;98651.88;5086840;28;20527;-77
2022/08/04 04:54:23;;;;;;;6.68;4.82;;;;;;;20.09;70.42;98661.66;5071837;28;20016;-77
2022/08/04 04:57:09;;;;;;;8.27;5.55;;;;;;;20.00;71.90;98655.41;5071630;28;20086;-77
2022/08/04 04:59:41;;;;;;;12.23;4.78;;;;;;;19.95;73.26;98652.84;5070694;28;20020;-77
2022/08/04 05:02:18;;;;;;;5.75;5.25;;;;;;;19.90;73.17;98655.69;5071723;28;20056;-77
2022/08/04 05:05:12;;;;;;;6.55;4.85;;;;;;;19.76;72.95;98626.00;5070222;28;20539;-77
2022/08/04 05:08:09;;;;;;;10.02;5.55;;;;;;;20.01;72.12;98663.22;5070042;28;20024;-77
2022/08/04 05:11:08;;;;;;;5.57;4.95;;;;;;;20.03;73.11;98662.88;5071671;28;20109;-77
2022/08/04 05:13:47;;;;;;;6.75;6.05;;;;;;;19.73;72.93;98632.03;5071779;28;20021;-77
2022/08/04 05:16:40;;;;;;;7.85;6.55;;;;;;;20.02;73.25;98659.41;5053518;28;20115;-77
2022/08/04 05:19:42;;;;;;;6.60;5.80;;;;;;;19.90;72.39;98661.09;5071657;28;20066;-77
2022/08/04 05:22:19;;;;;;;6.78;5.28;;;;;;;19.79;72.89;98651.69;5071625;28;20040;-76
2022/08/04 05:24:48;;;;;;;6.45;5.07;;;;;;;19.99;72.98;98662.72;5071579;28;20035;-77
2022/08/04 05:27:20;;;;;;;5.03;4.50;;;;;;;20.30;70.79;98670.81;5053490;28;20353;-77
2022/08/04 05:29:53;;;;;;;7.43;6.47;;;;;;;20.39;72.27;98674.34;5071459;28;20017;-77
2022/08/04 05:32:23;;;;;;;14.43;6.10;;;;;;;20.39;72.30;98671.63;5071456;28;20032;-77
2022/08/04 05:34:59;;;;;;;15.55;7.03;;;;;;;20.12;72.32;98644.75;5071304;28;20112;-77
2022/08/04 05:37:27;;;;;;;12.52;6.72;;;;;;;20.27;73.64;98679.56;5071387;28;20109;-77
2022/08/04 05:39:59;;;;;;;17.05;6.32;;;;;;;20.22;73.27;98665.38;5053254;28;20444;-77
2022/08/04 05:42:26;;;;;;;14.75;6.70;;;;;;;20.26;72.83;98669.06;5069773;28;20059;-76
2022/08/04 05:44:53;;;;;;;17.20;7.60;;;;;;;20.19;73.17;98648.59;5071391;28;20025;-80
2022/08/04 05:47:20;;;;;;;19.42;7.78;;;;;;;20.39;72.81;98658.09;5053582;28;20664;-77
2022/08/04 05:49:46;;;;;;;21.52;7.30;;;;;;;20.32;73.74;98657.75;5070794;28;20017;-77
2022/08/04 05:52:13;;;;;;;28.33;7.80;;;;;;;20.46;73.14;98673.88;5072535;28;20035;-77
2022/08/04 05:54:41;;;;;;;20.77;5.85;;;;;;;20.61;72.87;98663.38;5073625;28;20067;-79
2022/08/04 05:57:07;;;;;;;19.63;6.43;;;;;;;20.55;73.32;98661.13;5056985;28;20047;-77
2022/08/04 05:59:36;;;;;;;21.60;6.88;;;;;;;20.56;73.31;98641.03;5073652;28;20035;-79
2022/08/04 06:02:03;;;;;;;15.95;6.57;;;;;;;20.74;73.67;98667.84;5073676;28;20037;-77
2022/08/04 06:04:39;;;;;;;22.80;6.05;;;;;;;20.79;73.30;98656.81;5073660;28;20036;-77
2022/08/04 06:07:06;;;;;;;9.05;5.70;;;;;;;20.84;73.42;98664.00;5074736;28;20039;-77
2022/08/04 06:09:32;;;;;;;17.52;5.95;;;;;;;20.92;73.62;98649.66;5073323;28;20047;-77
2022/08/04 06:12:14;;;;;;;25.48;6.40;;;;;;;21.03;73.93;98653.66;5073246;28;20032;-77
2022/08/04 06:14:42;;;;;;;8.63;5.18;;;;;;;21.15;71.87;98658.41;5074585;28;20021;-77
2022/08/04 06:17:13;;;;;;;18.95;6.03;;;;;;;21.15;71.74;98642.94;5073137;28;20035;-77
2022/08/04 06:19:40;;;;;;;6.68;4.32;;;;;;;21.58;66.32;98656.41;5073433;28;20032;-77
2022/08/04 06:22:08;;;;;;;9.90;4.82;;;;;;;21.65;69.25;98651.25;5073318;28;20025;-77
2022/08/04 06:24:36;;;;;;;9.00;4.70;;;;;;;21.69;69.80;98652.19;5072871;28;20488;-77
2022/08/04 06:27:03;;;;;;;5.38;4.07;;;;;;;21.90;69.33;98655.84;5072579;28;20020;-77
2022/08/04 06:29:41;;;;;;;5.90;4.47;;;;;;;22.09;68.33;98656.22;5073070;28;20070;-77
2022/08/04 06:32:25;;;;;;;8.90;4.97;;;;;;;22.23;68.58;98654.06;5072918;28;20488;-77
2022/08/04 06:34:57;;;;;;;9.70;4.85;;;;;;;22.36;68.25;98655.75;5074472;28;20063;-77
2022/08/04 06:37:25;;;;;;;6.05;5.25;;;;;;;22.69;62.21;98652.34;5074073;28;20430;-77
2022/08/04 06:39:51;;;;;;;5.47;4.20;;;;;;;22.87;61.30;98642.88;5072874;28;20024;-77
2022/08/04 06:42:19;;;;;;;5.70;4.22;;;;;;;23.00;61.31;98650.78;5073976;28;20572;-77
2022/08/04 06:44:49;;;;;;;6.75;3.80;;;;;;;22.94;62.81;98645.88;5072810;28;20064;-77
2022/08/04 06:47:18;;;;;;;8.68;4.25;;;;;;;23.01;63.14;98652.38;5055849;28;20033;-77
2022/08/04 06:49:47;;;;;;;7.25;3.95;;;;;;;23.02;63.47;98655.91;5073525;28;20030;-77
2022/08/04 06:52:16;;;;;;;11.98;4.32;;;;;;;23.03;62.28;98647.41;5072768;28;20033;-77
2022/08/04 06:54:52;;;;;;;6.93;4.20;;;;;;;23.16;61.95;98644.72;5056084;28;20043;-77
2022/08/04 06:57:20;;;;;;;7.88;4.32;;;;;;;23.31;60.43;98638.63;5072592;28;20024;-77
2022/08/04 06:59:50;;;;;;;10.73;4.28;;;;;;;23.29;61.42;98638.16;5072515;28;20060;-77
2022/08/04 07:02:21;;;;;;;6.57;3.58;;;;;;;23.57;59.88;98652.78;5072139;28;20476;-77
2022/08/04 07:04:47;;;;;;;9.93;4.63;;;;;;;23.53;59.76;98647.22;5072200;28;20032;-77
2022/08/04 07:07:14;;;;;;;8.50;4.63;;;;;;;23.51;58.98;98640.53;5073443;28;20063;-77
2022/08/04 07:09:40;;;;;;;6.68;3.72;;;;;;;23.66;58.78;98634.41;5072366;28;20032;-77
2022/08/04 07:12:08;;;;;;;3.53;3.28;;;;;;;23.71;59.26;98628.75;5073532;28;20055;-77
2022/08/04 07:14:36;;;;;;;5.55;3.35;;;;;;;23.93;57.91;98641.13;5072308;28;20457;-77
2022/08/04 07:17:08;;;;;;;4.95;3.95;;;;;;;24.32;57.38;98635.81;5071700;28;20032;-77
2022/08/04 07:19:36;;;;;;;5.40;3.45;;;;;;;24.30;56.79;98640.81;5055260;28;20024;-77
2022/08/04 07:22:04;;;;;;;6.75;4.00;;;;;;;24.33;56.83;98634.66;5073337;28;20070;-77
2022/08/04 07:24:34;;;;;;;7.63;3.60;;;;;;;24.28;57.75;98636.84;5072245;28;20082;-77
2022/08/04 07:27:01;;;;;;;5.25;3.45;;;;;;;24.19;57.56;98628.78;5071782;28;20439;-77
2022/08/04 07:29:27;;;;;;;4.82;3.47;;;;;;;24.42;56.45;98620.88;5055299;28;20055;-77
2022/08/04 07:31:57;;;;;;;4.22;3.55;;;;;;;24.57;56.83;98634.59;5071882;28;20052;-77
2022/08/04 07:34:24;;;;;;;6.40;3.67;;;;;;;24.68;56.28;98636.88;5072064;28;20032;-77
2022/08/04 07:36:53;;;;;;;6.22;3.85;;;;;;;24.77;55.70;98624.69;5071482;28;20593;-77
2022/08/04 07:39:20;;;;;;;4.57;3.50;;;;;;;24.76;54.40;98636.75;5054999;28;20452;-77
2022/08/04 07:41:46;;;;;;;8.88;3.60;;;;;;;24.92;54.32;98637.59;5071692;28;20384;-77
2022/08/04 07:44:14;;;;;;;4.28;3.30;;;;;;;25.14;54.68;98636.28;5071394;28;20040;-77
2022/08/04 07:46:40;;;;;;;5.53;3.90;;;;;;;25.16;54.33;98634.75;5071482;28;20392;-77
2022/08/04 07:49:06;;;;;;;8.68;3.70;;;;;;;25.09;55.02;98631.84;5071213;28;20035;-77
2022/08/04 07:51:34;;;;;;;6.38;3.70;;;;;;;25.15;53.41;98622.25;5071356;28;20075;-77
2022/08/04 07:54:02;;;;;;;4.00;3.70;;;;;;;25.22;53.19;98621.66;5071061;28;20028;-77
2022/08/04 07:56:29;;;;;;;4.20;3.58;;;;;;;25.48;54.16;98619.25;5071142;28;20029;-77
2022/08/04 07:58:54;;;;;;;6.13;3.33;;;;;;;25.47;53.86;98616.88;5072421;28;20035;-77
2022/08/04 08:01:21;;;;;;;4.35;3.50;;;;;;;25.62;54.43;98622.31;5071206;28;20024;-77
2022/08/04 08:03:48;;;;;;;6.25;3.55;;;;;;;25.62;53.86;98611.38;5071151;28;20030;-77
2022/08/04 08:06:14;;;;;;;4.35;3.03;;;;;;;25.75;53.03;98606.66;5071275;28;20369;-77
2022/08/04 08:08:39;;;;;;;3.95;3.33;;;;;;;25.75;53.56;98612.13;5070582;28;20033;-77
2022/08/04 08:11:06;;;;;;;5.00;3.80;;;;;;;25.87;51.99;98612.00;5070968;28;20024;-77
2022/08/04 08:13:33;;;;;;;5.00;2.97;;;;;;;25.88;51.60;98602.66;5072515;28;20028;-77
2022/08/04 08:16:00;;;;;;;4.28;3.15;;;;;;;26.07;52.34;98597.25;5070089;28;20036;-77
2022/08/04 08:18:25;;;;;;;8.43;2.88;;;;;;;26.21;52.20;98607.75;5054222;28;20120;-77
2022/08/04 08:20:52;;;;;;;4.60;3.10;;;;;;;26.20;51.95;98603.44;5070953;28;20115;-77
2022/08/04 08:23:18;;;;;;;4.28;3.22;;;;;;;26.30;51.63;98600.91;5070606;28;20033;-77
2022/08/04 08:25:44;;;;;;;5.80;3.03;;;;;;;26.44;51.16;98603.97;5072113;28;20020;-77
2022/08/04 08:28:09;;;;;;;3.28;2.97;;;;;;;26.55;49.78;98610.47;5071972;28;20032;-77
2022/08/04 08:30:35;;;;;;;4.38;3.10;;;;;;;26.58;50.49;98601.53;5072235;28;20016;-77
2022/08/04 08:33:04;;;;;;;4.25;3.30;;;;;;;26.70;50.70;98603.34;5071969;28;20032;-77
2022/08/04 08:35:40;;;;;;;3.47;3.20;;;;;;;26.78;50.47;98587.91;5070650;28;20387;-77
2022/08/04 08:38:09;;;;;;;3.65;2.85;;;;;;;26.84;49.12;98592.72;5071494;28;20487;-77
2022/08/04 08:40:55;;;;;;;6.60;3.10;;;;;;;26.86;48.76;98575.91;5070611;28;20500;-77
2022/08/04 08:43:26;;;;;;;4.30;3.00;;;;;;;27.23;49.40;98588.78;5071761;28;20020;-77
2022/08/04 08:46:19;;;;;;;3.63;3.33;;;;;;;27.17;50.11;98592.16;5070686;28;20028;-77
2022/08/04 08:49:10;;;;;;;3.20;3.00;;;;;;;27.28;49.60;98587.69;5071215;28;20392;-77
2022/08/04 08:51:41;;;;;;;3.85;3.13;;;;;;;27.31;48.54;98590.47;5071852;28;20025;-78
2022/08/04 08:54:25;;;;;;;4.93;3.28;;;;;;;27.61;47.67;98587.88;5071920;28;20046;-77
2022/08/04 08:57:15;;;;;;;5.53;3.28;;;;;;;27.85;47.00;98578.47;5071481;28;20388;-77
2022/08/04 08:59:59;;;;;;;3.42;3.13;;;;;;;27.85;48.09;98584.75;5070154;28;20021;-77
2022/08/04 09:02:27;;;;;;;3.22;2.92;;;;;;;27.91;47.37;98577.81;5071827;28;20392;-77
2022/08/04 09:05:27;;;;;;;3.05;2.85;;;;;;;27.95;46.99;98569.63;5070264;28;20082;-77
2022/08/04 09:08:03;;;;;;;3.83;3.25;;;;;;;28.05;48.11;98574.47;5048924;28;20028;-77
2022/08/04 09:10:46;;;;;;;4.35;2.60;;;;;;;28.11;46.41;98573.78;5070291;28;20031;-77
2022/08/04 09:13:47;;;;;;;5.60;3.25;;;;;;;28.29;48.12;98579.53;5070139;28;20028;-77
2022/08/04 09:16:39;;;;;;;3.00;2.60;;;;;;;28.35;48.18;98569.03;5069488;28;20090;-77
2022/08/04 09:19:11;;;;;;;4.82;2.95;;;;;;;28.33;48.28;98579.59;5070440;28;20035;-77
2022/08/04 09:21:59;;;;;;;6.20;3.15;;;;;;;28.48;47.81;98582.16;5071164;28;20029;-77
2022/08/04 09:24:57;;;;;;;5.45;3.10;;;;;;;28.56;47.39;98580.28;5069479;28;20036;-77
2022/08/04 09:27:41;;;;;;;5.88;2.83;;;;;;;28.77;46.70;98580.56;5072390;28;20059;-77
2022/08/04 09:30:11;;;;;;;3.30;3.00;;;;;;;28.79;46.14;98581.78;5073966;28;20035;-77
2022/08/04 09:32:58;;;;;;;5.13;2.97;;;;;;;29.00;46.95;98586.75;5074134;28;20028;-77
2022/08/04 09:35:56;;;;;;;4.18;3.17;;;;;;;29.11;47.07;98582.16;5073695;28;20048;-77
2022/08/04 09:38:50;;;;;;;3.95;3.03;;;;;;;29.20;46.13;98574.44;5073413;28;20127;-77
2022/08/04 09:41:22;;;;;;;3.83;3.05;;;;;;;29.28;46.47;98575.28;5075632;28;20052;-77
2022/08/04 09:44:17;;;;;;;4.20;3.15;;;;;;;29.29;46.19;98574.88;5075854;28;20589;-77
2022/08/04 09:46:52;;;;;;;3.40;2.78;;;;;;;29.38;46.64;98569.06;5073708;28;20496;-78
2022/08/04 09:49:42;;;;;;;3.30;3.00;;;;;;;29.52;45.90;98571.97;5074766;28;20380;-77
2022/08/04 09:52:27;;;;;;;5.03;3.05;;;;;;;29.70;46.17;98575.66;5073265;28;20776;-78
2022/08/04 09:55:04;;;;;;;3.30;2.58;;;;;;;29.58;46.37;98567.69;5073605;28;20365;-78
2022/08/04 09:57:35;;;;;;;2.80;2.60;;;;;;;29.74;45.55;98564.66;5074836;28;20043;-77
2022/08/04 10:00:05;;;;;;;4.55;2.72;;;;;;;29.88;45.00;98556.56;5074694;28;20388;-78
2022/08/04 10:02:38;;;;;;;2.90;2.60;;;;;;;29.92;45.42;98538.09;5073561;28;20404;-78
2022/08/04 10:05:10;;;;;;;4.47;2.92;;;;;;;30.12;43.96;98562.19;5073244;28;20024;-78
2022/08/04 10:07:57;;;;;;;3.47;3.17;;;;;;;30.21;45.23;98567.38;5073118;28;20073;-78
2022/08/04 10:10:58;;;;;;;4.80;2.97;;;;;;;30.10;45.05;98539.78;5073312;28;20024;-78
2022/08/04 10:14:04;;;;;;;2.70;2.50;;;;;;;30.42;45.17;98559.25;5074384;28;20107;-78
2022/08/04 10:16:38;;;;;;;7.25;3.28;;;;;;;30.43;45.12;98558.06;5092108;28;20558;-78
2022/08/04 10:19:19;;;;;;;3.85;3.20;;;;;;;30.58;42.77;98558.94;5072830;28;20036;-77
2022/08/04 10:22:02;;;;;;;7.60;3.25;;;;;;;30.43;43.15;98525.00;5073197;28;20024;-77
2022/08/04 10:24:59;;;;;;;5.13;3.22;;;;;;;30.75;43.20;98550.75;5073274;28;20430;-78
2022/08/04 10:27:33;;;;;;;4.28;3.63;;;;;;;30.72;44.23;98546.00;5072837;28;20017;-78
2022/08/04 10:30:11;;;;;;;3.65;2.78;;;;;;;30.81;44.79;98537.34;5074254;28;20033;-78
2022/08/04 10:33:03;;;;;;;3.78;2.90;;;;;;;30.98;43.20;98551.22;5074173;28;20387;-78
2022/08/04 10:35:36;;;;;;;6.38;3.05;;;;;;;30.89;44.13;98531.50;5074318;28;20058;-78
2022/08/04 10:38:21;;;;;;;8.18;3.10;;;;;;;31.12;44.19;98539.44;5072777;28;20047;-78
2022/08/04 10:41:00;;;;;;;2.93;2.67;;;;;;;31.23;43.18;98545.75;5072412;28;20063;-78
2022/08/04 10:43:53;;;;;;;2.88;2.67;;;;;;;31.45;42.60;98544.63;5072697;28;20269;-78
2022/08/04 10:46:35;;;;;;;10.73;3.20;;;;;;;31.50;41.59;98526.88;5074025;28;20028;-78
2022/08/04 10:49:09;;;;;;;3.38;2.97;;;;;;;31.64;43.65;98533.19;5073439;28;20381;-78
2022/08/04 10:51:53;;;;;;;3.00;2.80;;;;;;;31.71;43.09;98527.66;5073892;28;20040;-78
2022/08/04 10:54:28;;;;;;;8.80;2.88;;;;;;;31.95;42.47;98537.13;5073921;28;20373;-78
2022/08/04 10:57:04;;;;;;;5.15;2.40;;;;;;;32.03;41.76;98519.34;5073688;28;20073;-78
2022/08/04 10:59:37;;;;;;;3.78;2.58;;;;;;;32.01;42.77;98515.41;5072346;28;20033;-78
2022/08/04 11:02:23;;;;;;;3.13;2.83;;;;;;;32.16;41.55;98500.38;5072377;28;20067;-78
2022/08/04 11:05:14;;;;;;;3.05;2.80;;;;;;;32.44;41.63;98517.63;5073478;28;20029;-79
2022/08/04 11:07:44;;;;;;;3.65;2.55;;;;;;;32.51;41.38;98503.81;5073374;28;20103;-78
2022/08/04 11:10:11;;;;;;;2.50;2.25;;;;;;;32.89;40.23;98501.25;5073464;28;20028;-78
2022/08/04 11:12:39;;;;;;;5.85;2.78;;;;;;;33.24;40.03;98506.56;5055719;28;20090;-78
2022/08/04 11:15:35;;;;;;;2.67;2.47;;;;;;;33.25;40.47;98508.91;5055784;28;20085;-78
2022/08/04 11:18:07;;;;;;;5.43;2.70;;;;;;;33.37;38.76;98504.09;5088357;28;20036;-78
2022/08/04 11:20:42;;;;;;;2.47;2.28;;;;;;;33.42;39.95;98487.06;5071755;28;20419;-78
2022/08/04 11:23:14;;;;;;;2.58;2.38;;;;;;;33.68;39.81;98492.75;5071930;28;20028;-78
2022/08/04 11:25:58;;;;;;;3.78;2.47;;;;;;;33.86;37.84;98493.34;5073281;28;20040;-78
2022/08/04 11:28:47;;;;;;;3.55;2.42;;;;;;;33.16;38.86;98483.69;5073094;28;20503;-78
2022/08/04 11:31:39;;;;;;;6.45;2.58;;;;;;;33.18;40.28;98503.44;5073275;28;20028;-78
2022/08/04 11:34:10;;;;;;;4.20;2.40;;;;;;;33.16;39.80;98491.19;5088027;28;20059;-78
2022/08/04 11:36:40;;;;;;;2.70;2.50;;;;;;;33.11;39.74;98497.16;5071512;28;20029;-78
2022/08/04 11:39:47;;;;;;;2.97;2.70;;;;;;;32.89;39.96;98490.19;5071446;28;20028;-78
2022/08/04 11:42:26;;;;;;;2.65;2.50;;;;;;;32.92;40.12;98498.44;5071218;28;20840;-78
2022/08/04 11:45:21;;;;;;;2.45;2.25;;;;;;;32.94;40.05;98501.59;5073063;28;20036;-78
2022/08/04 11:48:43;;;;;;;2.65;2.38;;;;;;;32.71;40.46;98504.09;5079093;28;20043;-78
2022/08/04 11:51:10;;;;;;;3.83;2.60;;;;;;;32.49;39.87;98495.13;5090372;28;20046;-78
2022/08/04 11:53:38;;;;;;;3.55;2.83;;;;;;;32.61;39.79;98495.88;5073755;28;20051;-78
2022/08/04 11:56:08;;;;;;;2.30;1.92;;;;;;;32.47;40.11;98483.69;5071200;28;20079;-78
2022/08/04 11:58:35;;;;;;;2.47;2.28;;;;;;;32.51;39.97;98490.00;5071724;28;20488;-78
2022/08/04 12:01:31;;;;;;;3.08;2.78;;;;;;;32.72;39.86;98497.38;5071177;28;20025;-78
2022/08/04 12:04:16;;;;;;;4.18;2.50;;;;;;;32.86;39.65;98502.03;5071005;28;20035;-78
2022/08/04 12:06:54;;;;;;;3.80;2.65;;;;;;;33.12;38.47;98504.25;5072151;28;20118;-78
2022/08/04 12:09:41;;;;;;;2.38;2.17;;;;;;;33.16;39.54;98494.75;5070934;28;20054;-78
2022/08/04 12:12:49;;;;;;;3.58;2.33;;;;;;;33.49;38.89;98495.25;5071017;28;20025;-78
2022/08/04 12:15:44;;;;;;;2.65;2.45;;;;;;;33.57;38.85;98486.53;5090113;28;20024;-78
2022/08/04 12:18:22;;;;;;;3.28;1.80;;;;;;;33.64;36.75;98474.63;5089933;28;20107;-78
2022/08/04 12:21:06;;;;;;;2.25;2.13;;;;;;;33.45;38.46;98498.06;5070826;28;20037;-78
2022/08/04 12:23:40;;;;;;;2.05;1.95;;;;;;;33.57;37.13;98489.31;5070758;28;20028;-78
2022/08/04 12:26:12;;;;;;;5.60;2.47;;;;;;;33.72;37.73;98482.44;5070810;28;20021;-78